createdAt,value
2018-09-25T00:00:51.369Z,7.27
2018-09-25T00:01:51.285Z,7.29
2018-09-25T00:02:51.209Z,7.29
2018-09-25T00:03:51.123Z,7.29
2018-09-25T00:04:51.050Z,7.24
2018-09-25T00:05:50.970Z,7.20
2018-09-25T00:06:50.891Z,7.23
2018-09-25T00:07:50.803Z,7.26
2018-09-25T00:08:50.730Z,7.20
2018-09-25T00:09:50.644Z,7.20
2018-09-25T00:10:50.572Z,7.13
2018-09-25T00:11:50.482Z,7.17
2018-09-25T00:12:50.419Z,7.19
2018-09-25T00:13:50.322Z,7.20
2018-09-25T00:14:50.251Z,7.03
2018-09-25T00:15:50.166Z,7.09
2018-09-25T00:16:50.092Z,7.09
2018-09-25T00:17:50.006Z,6.99
2018-09-25T00:18:49.934Z,6.94
2018-09-25T00:19:49.847Z,6.98
2018-09-25T00:20:49.772Z,6.94
2018-09-25T00:21:49.686Z,6.96
2018-09-25T00:22:49.613Z,6.98
2018-09-25T00:23:49.522Z,7.08
2018-09-25T00:24:49.455Z,6.88
2018-09-25T00:25:49.364Z,6.90
2018-09-25T00:26:49.293Z,6.96
2018-09-25T00:27:49.204Z,6.90
2018-09-25T00:28:49.134Z,6.90
2018-09-25T00:29:49.046Z,6.91
2018-09-25T00:30:48.975Z,6.93
2018-09-25T00:31:48.881Z,6.96
2018-09-25T00:32:48.813Z,6.94
2018-09-25T00:33:48.725Z,6.96
2018-09-25T00:34:48.654Z,6.83
2018-09-25T00:35:48.566Z,6.76
2018-09-25T00:36:48.493Z,6.70
2018-09-25T00:37:48.403Z,6.63
2018-09-25T00:38:48.334Z,6.66
2018-09-25T00:39:48.247Z,6.62
2018-09-25T00:40:48.174Z,6.63
2018-09-25T00:41:48.089Z,6.59
2018-09-25T00:42:48.014Z,6.47
2018-09-25T00:43:47.925Z,6.41
2018-09-25T00:44:47.853Z,6.50
2018-09-25T00:45:47.766Z,6.47
2018-09-25T00:46:47.696Z,6.51
2018-09-25T00:47:47.608Z,6.54
2018-09-25T00:48:47.534Z,6.55
2018-09-25T00:49:47.445Z,6.55
2018-09-25T00:50:47.373Z,6.66
2018-09-25T00:51:47.282Z,6.51
2018-09-25T00:52:47.215Z,6.57
2018-09-25T00:53:47.123Z,6.48
2018-09-25T00:54:47.052Z,6.41
2018-09-25T00:55:46.963Z,6.34
2018-09-25T00:56:46.889Z,6.27
2018-09-25T00:57:46.808Z,6.17
2018-09-25T00:58:46.731Z,6.22
2018-09-25T00:59:46.645Z,6.15
2018-09-25T01:00:46.569Z,6.11
2018-09-25T01:01:46.488Z,6.00
2018-09-25T01:02:46.408Z,6.06
2018-09-25T01:03:46.322Z,6.10
2018-09-25T01:04:46.247Z,5.99
2018-09-25T01:05:46.162Z,6.08
2018-09-25T01:06:46.089Z,6.11
2018-09-25T01:07:46.000Z,6.06
2018-09-25T01:08:45.930Z,6.03
2018-09-25T01:09:45.844Z,5.99
2018-09-25T01:10:45.766Z,6.04
2018-09-25T01:11:45.678Z,5.99
2018-09-25T01:12:45.606Z,5.99
2018-09-25T01:13:45.521Z,5.97
2018-09-25T01:14:45.449Z,5.97
2018-09-25T01:15:45.363Z,5.89
2018-09-25T01:16:45.290Z,5.92
2018-09-25T01:17:45.198Z,6.00
2018-09-25T01:18:45.125Z,5.86
2018-09-25T01:19:45.047Z,5.88
2018-09-25T01:20:44.967Z,5.89
2018-09-25T01:21:44.879Z,5.97
2018-09-25T01:22:44.802Z,5.83
2018-09-25T01:23:44.713Z,5.78
2018-09-25T01:24:44.651Z,5.80
2018-09-25T01:25:44.556Z,5.81
2018-09-25T01:26:44.478Z,5.80
2018-09-25T01:27:44.392Z,5.80
2018-09-25T01:28:44.321Z,5.86
2018-09-25T01:29:44.235Z,5.85
2018-09-25T01:30:44.160Z,5.78
2018-09-25T01:31:44.073Z,5.86
2018-09-25T01:32:44.002Z,5.81
2018-09-25T01:33:43.912Z,5.80
2018-09-25T01:34:43.839Z,5.90
2018-09-25T01:35:43.749Z,6.03
2018-09-25T01:36:43.680Z,6.03
2018-09-25T01:37:43.589Z,5.97
2018-09-25T01:38:43.522Z,5.97
2018-09-25T01:39:43.430Z,5.93
2018-09-25T01:40:43.357Z,5.92
2018-09-25T01:41:43.268Z,5.86
2018-09-25T01:42:43.196Z,5.85
2018-09-25T01:43:43.107Z,5.80
2018-09-25T01:44:43.036Z,5.89
2018-09-25T01:45:42.949Z,5.80
2018-09-25T01:46:42.872Z,5.81
2018-09-25T01:47:42.782Z,5.80
2018-09-25T01:48:42.713Z,5.78
2018-09-25T01:49:42.626Z,5.78
2018-09-25T01:50:42.554Z,5.77
2018-09-25T01:51:42.459Z,5.72
2018-09-25T01:52:42.391Z,5.74
2018-09-25T01:53:42.310Z,5.70
2018-09-25T01:54:42.237Z,5.74
2018-09-25T01:55:42.146Z,5.70
2018-09-25T01:56:42.068Z,5.68
2018-09-25T01:57:41.981Z,5.68
2018-09-25T01:58:41.909Z,5.59
2018-09-25T01:59:41.820Z,5.57
2018-09-25T02:00:41.750Z,5.70
2018-09-25T02:01:41.657Z,5.54
2018-09-25T02:02:41.584Z,5.62
2018-09-25T02:03:41.497Z,5.63
2018-09-25T02:04:41.424Z,5.54
2018-09-25T02:05:41.341Z,5.68
2018-09-25T02:06:41.263Z,5.56
2018-09-25T02:07:41.175Z,5.52
2018-09-25T02:08:41.105Z,5.44
2018-09-25T02:09:41.016Z,5.42
2018-09-25T02:10:40.939Z,5.41
2018-09-25T02:11:40.851Z,5.32
2018-09-25T02:12:40.777Z,5.28
2018-09-25T02:13:40.692Z,5.28
2018-09-25T02:14:40.616Z,5.20
2018-09-25T02:15:40.527Z,5.20
2018-09-25T02:16:40.460Z,5.28
2018-09-25T02:17:40.367Z,5.32
2018-09-25T02:18:40.297Z,5.29
2018-09-25T02:19:40.207Z,5.31
2018-09-25T02:20:40.136Z,5.31
2018-09-25T02:21:40.045Z,5.36
2018-09-25T02:22:39.977Z,5.31
2018-09-25T02:23:39.884Z,5.28
2018-09-25T02:24:39.809Z,5.32
2018-09-25T02:25:39.722Z,5.29
2018-09-25T02:26:39.646Z,5.44
2018-09-25T02:27:39.562Z,5.39
2018-09-25T02:28:39.489Z,5.36
2018-09-25T02:29:39.400Z,5.47
2018-09-25T02:30:39.329Z,5.35
2018-09-25T02:31:39.236Z,5.31
2018-09-25T02:32:39.164Z,5.32
2018-09-25T02:33:39.077Z,5.26
2018-09-25T02:34:39.008Z,5.32
2018-09-25T02:35:38.919Z,5.31
2018-09-25T02:36:38.840Z,5.32
2018-09-25T02:37:38.748Z,5.29
2018-09-25T02:38:38.676Z,5.18
2018-09-25T02:39:39.477Z,5.24
2018-09-25T02:40:38.520Z,5.23
2018-09-25T02:41:38.430Z,5.17
2018-09-25T02:42:38.364Z,5.14
2018-09-25T02:43:38.271Z,5.14
2018-09-25T02:44:38.193Z,5.08
2018-09-25T02:45:38.103Z,5.11
2018-09-25T02:46:38.033Z,5.06
2018-09-25T02:47:37.950Z,5.02
2018-09-25T02:48:37.870Z,4.98
2018-09-25T02:49:37.783Z,5.02
2018-09-25T02:50:37.719Z,5.10
2018-09-25T02:51:37.620Z,4.95
2018-09-25T02:52:37.548Z,4.91
2018-09-25T02:53:37.461Z,4.91
2018-09-25T02:54:37.384Z,4.88
2018-09-25T02:55:37.297Z,4.91
2018-09-25T02:56:37.224Z,4.91
2018-09-25T02:57:37.137Z,4.93
2018-09-25T02:58:37.064Z,4.87
2018-09-25T02:59:36.986Z,4.93
2018-09-25T03:00:36.903Z,4.91
2018-09-25T03:01:36.809Z,4.93
2018-09-25T03:02:36.741Z,4.84
2018-09-25T03:03:36.650Z,4.93
2018-09-25T03:04:36.574Z,4.88
2018-09-25T03:05:36.488Z,4.92
2018-09-25T03:06:36.417Z,4.95
2018-09-25T03:07:36.327Z,5.02
2018-09-25T03:08:36.252Z,5.02
2018-09-25T03:09:36.164Z,5.03
2018-09-25T03:10:36.091Z,4.98
2018-09-25T03:11:36.004Z,4.99
2018-09-25T03:12:35.927Z,4.98
2018-09-25T03:13:35.840Z,4.93
2018-09-25T03:14:35.768Z,4.96
2018-09-25T03:15:35.677Z,4.83
2018-09-25T03:16:35.609Z,4.92
2018-09-25T03:17:35.517Z,4.79
2018-09-25T03:18:35.442Z,4.77
2018-09-25T03:19:35.355Z,4.69
2018-09-25T03:20:35.281Z,4.69
2018-09-25T03:21:35.197Z,4.56
2018-09-25T03:22:35.120Z,4.52
2018-09-25T03:23:35.031Z,4.61
2018-09-25T03:24:34.956Z,4.56
2018-09-25T03:25:34.870Z,4.56
2018-09-25T03:26:34.817Z,4.50
2018-09-25T03:27:34.706Z,4.52
2018-09-25T03:28:34.637Z,4.54
2018-09-25T03:29:34.548Z,4.55
2018-09-25T03:30:34.548Z,4.54
2018-09-25T03:31:34.388Z,4.52
2018-09-25T03:32:34.307Z,4.58
2018-09-25T03:33:34.221Z,4.62
2018-09-25T03:34:34.262Z,4.52
2018-09-25T03:35:34.082Z,4.66
2018-09-25T03:36:34.067Z,4.69
2018-09-25T03:37:33.895Z,4.72
2018-09-25T03:38:33.824Z,4.72
2018-09-25T03:39:33.747Z,4.72
2018-09-25T03:40:33.666Z,4.58
2018-09-25T03:41:33.577Z,4.55
2018-09-25T03:42:33.497Z,4.62
2018-09-25T03:43:33.407Z,4.58
2018-09-25T03:44:33.337Z,4.56
2018-09-25T03:45:33.247Z,4.44
2018-09-25T03:46:33.183Z,4.38
2018-09-25T03:47:33.084Z,4.20
2018-09-25T03:48:33.012Z,4.18
2018-09-25T03:49:32.922Z,4.22
2018-09-25T03:50:32.928Z,4.12
2018-09-25T03:51:32.760Z,4.19
2018-09-25T03:52:32.739Z,4.16
2018-09-25T03:53:32.600Z,4.19
2018-09-25T03:54:32.555Z,4.22
2018-09-25T03:55:32.434Z,4.08
2018-09-25T03:56:32.459Z,4.08
2018-09-25T03:57:32.280Z,4.11
2018-09-25T03:58:32.269Z,4.10
2018-09-25T03:59:32.141Z,4.19
2018-09-25T04:00:32.034Z,4.12
2018-09-25T04:01:31.949Z,4.07
2018-09-25T04:02:31.883Z,4.07
2018-09-25T04:03:31.785Z,4.04
2018-09-25T04:04:31.795Z,4.01
2018-09-25T04:05:31.622Z,4.05
2018-09-25T04:06:31.604Z,4.02
2018-09-25T04:07:31.461Z,3.98
2018-09-25T04:08:31.412Z,4.08
2018-09-25T04:09:31.298Z,4.04
2018-09-25T04:10:31.323Z,4.12
2018-09-25T04:11:31.137Z,4.02
2018-09-25T04:12:31.131Z,4.07
2018-09-25T04:13:30.976Z,4.01
2018-09-25T04:14:30.941Z,4.01
2018-09-25T04:15:30.808Z,4.02
2018-09-25T04:16:30.735Z,4.07
2018-09-25T04:17:30.647Z,4.04
2018-09-25T04:18:30.578Z,4.01
2018-09-25T04:19:30.484Z,4.02
2018-09-25T04:20:30.465Z,3.84
2018-09-25T04:21:30.320Z,3.84
2018-09-25T04:22:30.247Z,3.84
2018-09-25T04:23:30.161Z,3.82
2018-09-25T04:24:31.113Z,3.89
2018-09-25T04:25:29.997Z,3.90
2018-09-25T04:26:29.998Z,3.93
2018-09-25T04:27:29.833Z,3.86
2018-09-25T04:28:31.899Z,3.83
2018-09-25T04:29:29.669Z,3.75
2018-09-25T04:30:29.591Z,3.79
2018-09-25T04:31:29.508Z,3.82
2018-09-25T04:32:29.439Z,3.75
2018-09-25T04:33:29.354Z,3.79
2018-09-25T04:34:29.270Z,3.77
2018-09-25T04:35:29.181Z,3.79
2018-09-25T04:36:29.108Z,3.66
2018-09-25T04:37:29.021Z,3.65
2018-09-25T04:38:29.058Z,3.71
2018-09-25T04:39:28.856Z,3.68
2018-09-25T04:40:28.783Z,3.69
2018-09-25T04:41:28.692Z,3.69
2018-09-25T04:42:28.674Z,3.75
2018-09-25T04:43:28.529Z,3.72
2018-09-25T04:44:28.480Z,3.74
2018-09-25T04:45:28.367Z,3.84
2018-09-25T04:46:28.292Z,3.93
2018-09-25T04:47:28.202Z,3.94
2018-09-25T04:48:28.130Z,3.87
2018-09-25T04:49:28.039Z,3.93
2018-09-25T04:50:27.976Z,3.90
2018-09-25T04:51:27.874Z,3.90
2018-09-25T04:52:27.802Z,3.93
2018-09-25T04:53:27.715Z,3.83
2018-09-25T04:54:27.648Z,3.71
2018-09-25T04:55:27.550Z,3.75
2018-09-25T04:56:27.477Z,3.77
2018-09-25T04:57:27.389Z,3.74
2018-09-25T04:58:27.313Z,3.69
2018-09-25T04:59:27.227Z,3.69
2018-09-25T05:00:27.157Z,3.79
2018-09-25T05:01:27.063Z,3.75
2018-09-25T05:02:27.067Z,3.80
2018-09-25T05:03:26.896Z,3.71
2018-09-25T05:04:26.871Z,3.75
2018-09-25T05:05:26.733Z,3.82
2018-09-25T05:06:26.711Z,3.79
2018-09-25T05:07:26.574Z,3.80
2018-09-25T05:08:26.589Z,3.83
2018-09-25T05:09:26.407Z,3.83
2018-09-25T05:10:26.331Z,3.82
2018-09-25T05:11:26.245Z,3.87
2018-09-25T05:12:26.178Z,3.84
2018-09-25T05:13:26.083Z,3.83
2018-09-25T05:14:26.120Z,3.86
2018-09-25T05:15:25.918Z,3.86
2018-09-25T05:16:25.926Z,3.84
2018-09-25T05:17:25.755Z,3.82
2018-09-25T05:18:25.736Z,3.84
2018-09-25T05:19:25.594Z,3.74
2018-09-25T05:20:25.517Z,3.80
2018-09-25T05:21:25.428Z,3.77
2018-09-25T05:22:25.356Z,3.79
2018-09-25T05:23:25.273Z,3.74
2018-09-25T05:24:25.189Z,3.74
2018-09-25T05:25:25.101Z,3.75
2018-09-25T05:26:25.032Z,3.82
2018-09-25T05:27:24.937Z,3.74
2018-09-25T05:28:24.866Z,3.74
2018-09-25T05:29:24.773Z,3.69
2018-09-25T05:30:24.706Z,3.72
2018-09-25T05:31:24.611Z,3.69
2018-09-25T05:32:24.537Z,3.66
2018-09-25T05:33:24.446Z,3.66
2018-09-25T05:34:24.378Z,3.68
2018-09-25T05:35:24.284Z,3.71
2018-09-25T05:36:24.216Z,3.69
2018-09-25T05:37:24.122Z,3.64
2018-09-25T05:38:24.044Z,3.71
2018-09-25T05:39:23.961Z,3.69
2018-09-25T05:40:23.955Z,3.64
2018-09-25T05:41:23.797Z,3.68
2018-09-25T05:42:23.766Z,3.65
2018-09-25T05:43:23.630Z,3.62
2018-09-25T05:44:23.572Z,3.62
2018-09-25T05:45:23.474Z,3.56
2018-09-25T05:46:23.485Z,3.68
2018-09-25T05:47:23.305Z,3.68
2018-09-25T05:48:23.362Z,3.69
2018-09-25T05:49:23.143Z,3.72
2018-09-25T05:50:23.103Z,3.74
2018-09-25T05:51:22.977Z,3.77
2018-09-25T05:52:23.014Z,3.83
2018-09-25T05:53:22.812Z,3.86
2018-09-25T05:54:22.820Z,3.82
2018-09-25T05:55:22.653Z,3.90
2018-09-25T05:56:22.569Z,3.86
2018-09-25T05:57:22.537Z,3.89
2018-09-25T05:58:22.409Z,3.84
2018-09-25T05:59:22.346Z,3.94
2018-09-25T06:00:22.247Z,3.93
2018-09-25T06:01:22.257Z,3.86
2018-09-25T06:02:22.080Z,3.87
2018-09-25T06:03:22.000Z,3.98
2018-09-25T06:04:21.917Z,4.00
2018-09-25T06:05:21.875Z,4.01
2018-09-25T06:06:21.751Z,4.00
2018-09-25T06:07:21.785Z,3.98
2018-09-25T06:08:21.588Z,4.01
2018-09-25T06:09:21.617Z,4.02
2018-09-25T06:10:21.425Z,4.02
2018-09-25T06:11:21.407Z,4.11
2018-09-25T06:12:21.265Z,4.16
2018-09-25T06:13:21.214Z,4.11
2018-09-25T06:14:21.103Z,4.16
2018-09-25T06:15:21.125Z,4.26
2018-09-25T06:16:20.935Z,4.29
2018-09-25T06:17:20.933Z,4.29
2018-09-25T06:18:20.773Z,4.30
2018-09-25T06:19:20.744Z,4.40
2018-09-25T06:20:20.607Z,4.41
2018-09-25T06:21:20.551Z,4.43
2018-09-25T06:22:20.444Z,4.50
2018-09-25T06:23:20.467Z,4.58
2018-09-25T06:24:20.282Z,4.56
2018-09-25T06:25:20.272Z,4.59
2018-09-25T06:26:20.121Z,4.62
2018-09-25T06:27:20.083Z,4.59
2018-09-25T06:28:19.954Z,4.68
2018-09-25T06:29:19.880Z,4.65
2018-09-25T06:30:19.900Z,4.74
2018-09-25T06:31:19.715Z,4.76
2018-09-25T06:32:19.707Z,4.80
2018-09-25T06:33:19.553Z,4.84
2018-09-25T06:34:19.517Z,4.79
2018-09-25T06:35:19.384Z,4.95
2018-09-25T06:36:19.323Z,4.98
2018-09-25T06:37:19.284Z,5.00
2018-09-25T06:38:19.236Z,5.11
2018-09-25T06:39:19.062Z,5.08
2018-09-25T06:40:19.043Z,5.16
2018-09-25T06:41:18.891Z,5.17
2018-09-25T06:42:18.856Z,5.17
2018-09-25T06:43:18.735Z,5.31
2018-09-25T06:44:18.663Z,5.35
2018-09-25T06:45:18.572Z,5.36
2018-09-25T06:46:18.611Z,5.52
2018-09-25T06:47:18.457Z,5.53
2018-09-25T06:48:18.384Z,5.57
2018-09-25T06:49:18.251Z,5.59
2018-09-25T06:50:18.195Z,5.63
2018-09-25T06:51:18.084Z,5.70
2018-09-25T06:52:18.104Z,5.75
2018-09-25T06:53:17.918Z,5.83
2018-09-25T06:54:17.912Z,5.86
2018-09-25T06:55:17.862Z,5.86
2018-09-25T06:56:17.675Z,5.99
2018-09-25T06:57:17.626Z,5.96
2018-09-25T06:58:17.516Z,6.07
2018-09-25T06:59:17.538Z,6.10
2018-09-25T07:00:17.352Z,6.24
2018-09-25T07:01:17.352Z,6.27
2018-09-25T07:02:17.188Z,6.22
2018-09-25T07:03:17.156Z,6.42
2018-09-25T07:04:17.027Z,6.41
2018-09-25T07:05:17.067Z,6.50
2018-09-25T07:06:16.865Z,6.68
2018-09-25T07:07:16.877Z,6.66
2018-09-25T07:08:16.703Z,6.87
2018-09-25T07:09:16.687Z,6.94
2018-09-25T07:10:16.627Z,6.96
2018-09-25T07:11:16.496Z,6.99
2018-09-25T07:12:16.380Z,7.08
2018-09-25T07:13:16.413Z,7.19
2018-09-25T07:14:16.220Z,7.31
2018-09-25T07:15:16.214Z,7.41
2018-09-25T07:16:16.058Z,7.60
2018-09-25T07:17:16.027Z,7.67
2018-09-25T07:18:15.899Z,7.91
2018-09-25T07:19:15.936Z,8.01
2018-09-25T07:20:15.735Z,8.12
2018-09-25T07:21:15.657Z,8.12
2018-09-25T07:22:15.649Z,8.36
2018-09-25T07:23:15.492Z,8.40
2018-09-25T07:24:15.459Z,8.44
2018-09-25T07:25:15.333Z,8.62
2018-09-25T07:26:15.369Z,8.84
2018-09-25T07:27:15.172Z,8.95
2018-09-25T07:28:15.179Z,9.03
2018-09-25T07:29:15.012Z,9.13
2018-09-25T07:30:14.988Z,9.28
2018-09-25T07:31:14.856Z,9.28
2018-09-25T07:32:14.796Z,9.37
2018-09-25T07:33:14.695Z,9.42
2018-09-25T07:34:14.707Z,9.58
2018-09-25T07:35:14.533Z,9.75
2018-09-25T07:36:14.516Z,9.92
2018-09-25T07:37:14.378Z,9.93
2018-09-25T07:38:14.327Z,10.03
2018-09-25T07:39:14.216Z,10.15
2018-09-25T07:40:14.244Z,10.28
2018-09-25T07:41:14.051Z,10.41
2018-09-25T07:42:14.049Z,10.53
2018-09-25T07:43:13.904Z,10.65
2018-09-25T07:44:13.857Z,10.69
2018-09-25T07:45:13.736Z,10.91
2018-09-25T07:46:13.769Z,10.91
2018-09-25T07:47:13.582Z,11.14
2018-09-25T07:48:13.599Z,11.06
2018-09-25T07:49:13.422Z,11.26
2018-09-25T07:50:13.385Z,11.36
2018-09-25T07:51:13.262Z,11.53
2018-09-25T07:52:13.302Z,11.65
2018-09-25T07:53:13.107Z,11.67
2018-09-25T07:54:13.104Z,11.76
2018-09-25T07:55:12.952Z,11.75
2018-09-25T07:56:12.915Z,11.79
2018-09-25T07:57:12.790Z,11.94
2018-09-25T07:58:12.823Z,11.95
2018-09-25T07:59:12.661Z,12.00
2018-09-25T08:00:12.636Z,12.05
2018-09-25T08:01:12.480Z,12.13
2018-09-25T08:02:12.401Z,12.15
2018-09-25T08:03:12.365Z,12.28
2018-09-25T08:04:12.355Z,12.42
2018-09-25T08:05:12.162Z,12.42
2018-09-25T08:06:12.163Z,12.42
2018-09-25T08:07:12.002Z,12.53
2018-09-25T08:08:11.976Z,12.56
2018-09-25T08:09:11.929Z,12.71
2018-09-25T08:10:11.767Z,12.81
2018-09-25T08:11:11.793Z,12.92
2018-09-25T08:12:11.611Z,13.00
2018-09-25T08:13:11.605Z,12.99
2018-09-25T08:14:11.458Z,13.15
2018-09-25T08:15:11.412Z,13.19
2018-09-25T08:16:11.306Z,13.29
2018-09-25T08:17:11.323Z,13.36
2018-09-25T08:18:11.144Z,13.43
2018-09-25T08:19:11.134Z,13.41
2018-09-25T08:20:10.989Z,13.55
2018-09-25T08:21:10.943Z,13.58
2018-09-25T08:22:10.833Z,13.56
2018-09-25T08:23:10.849Z,13.58
2018-09-25T08:24:10.676Z,13.73
2018-09-25T08:25:10.658Z,13.77
2018-09-25T08:26:10.527Z,13.86
2018-09-25T08:27:10.467Z,13.98
2018-09-25T08:28:10.367Z,14.11
2018-09-25T08:29:10.381Z,14.19
2018-09-25T08:30:10.213Z,14.24
2018-09-25T08:31:10.191Z,14.35
2018-09-25T08:32:10.056Z,14.36
2018-09-25T08:33:10.099Z,14.32
2018-09-25T08:34:09.902Z,14.32
2018-09-25T08:35:09.907Z,14.36
2018-09-25T08:36:09.748Z,14.35
2018-09-25T08:37:09.672Z,14.28
2018-09-25T08:38:09.594Z,14.14
2018-09-25T08:39:09.667Z,14.11
2018-09-25T08:40:09.438Z,14.19
2018-09-25T08:41:09.445Z,14.23
2018-09-25T08:42:09.287Z,14.31
2018-09-25T08:43:09.244Z,14.42
2018-09-25T08:44:09.132Z,14.49
2018-09-25T08:45:09.055Z,14.56
2018-09-25T08:46:09.063Z,14.64
2018-09-25T08:47:08.901Z,14.60
2018-09-25T08:48:08.882Z,14.64
2018-09-25T08:49:08.749Z,14.71
2018-09-25T08:50:08.683Z,14.69
2018-09-25T08:51:08.592Z,14.80
2018-09-25T08:52:08.592Z,14.93
2018-09-25T08:53:08.442Z,14.94
2018-09-25T08:54:08.402Z,14.98
2018-09-25T08:55:08.286Z,15.02
2018-09-25T08:56:08.311Z,15.05
2018-09-25T08:57:08.133Z,15.13
2018-09-25T08:58:08.121Z,15.13
2018-09-25T08:59:07.980Z,15.31
2018-09-25T09:00:07.903Z,15.31
2018-09-25T09:01:07.947Z,15.42
2018-09-25T09:02:07.749Z,15.52
2018-09-25T09:03:07.748Z,15.53
2018-09-25T09:04:07.606Z,15.63
2018-09-25T09:05:07.559Z,15.71
2018-09-25T09:06:07.451Z,15.60
2018-09-25T09:07:07.469Z,15.76
2018-09-25T09:08:07.298Z,15.70
2018-09-25T09:09:07.219Z,15.53
2018-09-25T09:10:07.142Z,15.59
2018-09-25T09:11:07.187Z,15.59
2018-09-25T09:12:06.983Z,15.71
2018-09-25T09:13:06.997Z,15.61
2018-09-25T09:14:06.838Z,15.61
2018-09-25T09:15:06.809Z,15.76
2018-09-25T09:16:06.679Z,15.75
2018-09-25T09:17:06.718Z,15.88
2018-09-25T09:18:06.532Z,15.89
2018-09-25T09:19:06.531Z,15.99
2018-09-25T09:20:06.495Z,16.06
2018-09-25T09:21:06.337Z,16.03
2018-09-25T09:22:06.234Z,16.12
2018-09-25T09:23:06.245Z,16.16
2018-09-25T09:24:06.083Z,16.34
2018-09-25T09:25:06.093Z,16.35
2018-09-25T09:26:05.927Z,16.35
2018-09-25T09:27:05.964Z,16.47
2018-09-25T09:28:05.773Z,16.34
2018-09-25T09:29:05.774Z,16.42
2018-09-25T09:30:05.622Z,16.40
2018-09-25T09:31:05.585Z,16.30
2018-09-25T09:32:05.475Z,16.38
2018-09-25T09:33:05.496Z,16.45
2018-09-25T09:34:05.321Z,16.55
2018-09-25T09:35:05.304Z,16.45
2018-09-25T09:36:05.169Z,16.45
2018-09-25T09:37:05.216Z,16.41
2018-09-25T09:38:05.018Z,16.57
2018-09-25T09:39:05.026Z,16.59
2018-09-25T09:40:04.869Z,16.44
2018-09-25T09:41:04.862Z,16.40
2018-09-25T09:42:04.927Z,16.20
2018-09-25T09:43:04.747Z,16.16
2018-09-25T09:44:04.572Z,16.37
2018-09-25T09:45:04.491Z,16.14
2018-09-25T09:46:04.457Z,16.23
2018-09-25T09:47:04.339Z,16.25
2018-09-25T09:48:04.373Z,16.26
2018-09-25T09:49:04.193Z,16.47
2018-09-25T09:50:04.124Z,16.57
2018-09-25T09:51:04.067Z,16.74
2018-09-25T09:52:03.994Z,16.88
2018-09-25T09:53:03.890Z,16.96
2018-09-25T09:54:03.898Z,16.95
2018-09-25T09:55:03.740Z,16.85
2018-09-25T09:56:03.709Z,16.88
2018-09-25T09:57:03.591Z,16.66
2018-09-25T09:58:03.620Z,16.67
2018-09-25T09:59:03.448Z,16.66
2018-09-25T10:00:03.433Z,16.75
2018-09-25T10:01:03.289Z,16.71
2018-09-25T10:02:03.240Z,16.89
2018-09-25T10:03:03.139Z,16.90
2018-09-25T10:04:03.150Z,16.77
2018-09-25T10:05:02.997Z,16.84
2018-09-25T10:06:02.961Z,16.77
2018-09-25T10:07:02.919Z,16.82
2018-09-25T10:08:02.869Z,16.65
2018-09-25T10:09:02.687Z,16.77
2018-09-25T10:10:02.685Z,16.82
2018-09-25T10:11:02.542Z,16.89
2018-09-25T10:12:02.493Z,16.98
2018-09-25T10:13:02.393Z,16.98
2018-09-25T10:14:02.316Z,17.03
2018-09-25T10:15:02.241Z,16.92
2018-09-25T10:16:02.206Z,16.73
2018-09-25T10:17:02.090Z,16.71
2018-09-25T10:18:02.122Z,16.42
2018-09-25T10:19:01.945Z,16.45
2018-09-25T10:20:01.941Z,16.33
2018-09-25T10:21:01.793Z,16.38
2018-09-25T10:22:01.741Z,16.66
2018-09-25T10:23:01.655Z,16.62
2018-09-25T10:24:01.653Z,16.80
2018-09-25T10:25:01.492Z,16.84
2018-09-25T10:26:01.460Z,16.89
2018-09-25T10:27:01.341Z,16.95
2018-09-25T10:28:01.373Z,16.99
2018-09-25T10:29:01.196Z,17.08
2018-09-25T10:30:01.180Z,17.07
2018-09-25T10:31:01.055Z,17.02
2018-09-25T10:32:01.092Z,17.14
2018-09-25T10:33:00.896Z,17.02
2018-09-25T10:34:00.933Z,16.98
2018-09-25T10:35:00.746Z,17.03
2018-09-25T10:36:00.712Z,17.03
2018-09-25T10:37:00.598Z,16.99
2018-09-25T10:38:00.622Z,17.10
2018-09-25T10:39:00.449Z,17.15
2018-09-25T10:40:00.432Z,17.20
2018-09-25T10:41:00.304Z,17.35
2018-09-25T10:42:00.338Z,17.29
2018-09-25T10:43:00.150Z,17.39
2018-09-25T10:44:00.150Z,17.46
2018-09-25T10:45:00.001Z,17.57
2018-09-25T10:45:59.970Z,17.69
2018-09-25T10:46:59.854Z,17.69
2018-09-25T10:47:59.780Z,17.84
2018-09-25T10:48:59.774Z,17.77
2018-09-25T10:49:59.697Z,17.73
2018-09-25T10:50:59.586Z,17.60
2018-09-25T10:51:59.482Z,17.50
2018-09-25T10:52:59.497Z,17.55
2018-09-25T10:53:59.334Z,17.70
2018-09-25T10:54:59.306Z,17.66
2018-09-25T10:55:59.262Z,17.67
2018-09-25T10:56:59.217Z,17.71
2018-09-25T10:57:59.040Z,17.71
2018-09-25T10:58:59.028Z,17.35
2018-09-25T10:59:58.889Z,17.18
2018-09-25T11:00:58.940Z,17.29
2018-09-25T11:01:58.744Z,17.35
2018-09-25T11:02:58.892Z,17.20
2018-09-25T11:03:58.589Z,16.96
2018-09-25T11:04:58.519Z,16.88
2018-09-25T11:05:58.565Z,16.80
2018-09-25T11:06:58.367Z,16.89
2018-09-25T11:07:58.372Z,16.88
2018-09-25T11:08:58.217Z,16.90
2018-09-25T11:09:58.193Z,16.99
2018-09-25T11:10:58.067Z,16.98
2018-09-25T11:11:57.995Z,16.99
2018-09-25T11:12:57.996Z,16.95
2018-09-25T11:13:57.849Z,17.00
2018-09-25T11:14:57.833Z,16.82
2018-09-25T11:15:57.700Z,16.78
2018-09-25T11:16:57.821Z,16.75
2018-09-25T11:17:57.549Z,16.75
2018-09-25T11:18:57.635Z,16.82
2018-09-25T11:19:57.398Z,16.93
2018-09-25T11:20:57.326Z,17.08
2018-09-25T11:21:57.446Z,17.25
2018-09-25T11:22:57.179Z,17.28
2018-09-25T11:23:57.256Z,17.57
2018-09-25T11:24:57.029Z,17.64
2018-09-25T11:25:56.957Z,17.66
2018-09-25T11:26:57.073Z,17.73
2018-09-25T11:27:56.808Z,17.70
2018-09-25T11:28:56.885Z,17.84
2018-09-25T11:29:56.663Z,17.79
2018-09-25T11:30:56.795Z,17.76
2018-09-25T11:31:56.511Z,17.92
2018-09-25T11:32:56.602Z,17.89
2018-09-25T11:33:56.361Z,17.96
2018-09-25T11:34:56.410Z,18.10
2018-09-25T11:35:56.215Z,18.07
2018-09-25T11:36:57.349Z,18.21
2018-09-25T11:37:56.067Z,18.16
2018-09-25T11:38:58.180Z,18.06
2018-09-25T11:39:55.917Z,17.91
2018-09-25T11:40:57.132Z,17.84
2018-09-25T11:41:55.770Z,17.69
2018-09-25T11:42:55.694Z,17.40
2018-09-25T11:43:55.649Z,17.39
2018-09-25T11:44:55.762Z,17.21
2018-09-25T11:45:55.511Z,17.14
2018-09-25T11:46:55.664Z,17.20
2018-09-25T11:47:55.327Z,17.17
2018-09-25T11:48:55.380Z,17.32
2018-09-25T11:49:55.229Z,17.46
2018-09-25T11:50:55.295Z,17.55
2018-09-25T11:51:55.026Z,17.66
2018-09-25T11:52:55.137Z,17.66
2018-09-25T11:53:54.904Z,17.70
2018-09-25T11:54:54.804Z,17.67
2018-09-25T11:55:54.730Z,17.74
2018-09-25T11:56:54.821Z,17.76
2018-09-25T11:57:54.585Z,17.89
2018-09-25T11:58:54.524Z,17.91
2018-09-25T11:59:54.434Z,17.88
2018-09-25T12:00:54.437Z,17.94
2018-09-25T12:01:54.287Z,17.96
2018-09-25T12:02:54.357Z,18.03
2018-09-25T12:03:54.141Z,18.04
2018-09-25T12:04:54.263Z,17.81
2018-09-25T12:05:53.992Z,17.46
2018-09-25T12:06:54.070Z,17.32
2018-09-25T12:07:53.843Z,17.33
2018-09-25T12:08:53.983Z,17.15
2018-09-25T12:09:53.693Z,17.25
2018-09-25T12:10:53.619Z,17.28
2018-09-25T12:11:53.550Z,17.32
2018-09-25T12:12:53.468Z,17.50
2018-09-25T12:13:53.622Z,17.58
2018-09-25T12:14:53.322Z,17.50
2018-09-25T12:15:53.412Z,17.26
2018-09-25T12:16:53.175Z,17.26
2018-09-25T12:17:53.328Z,17.23
2018-09-25T12:18:53.027Z,17.29
2018-09-25T12:19:53.149Z,17.28
2018-09-25T12:20:52.882Z,17.38
2018-09-25T12:21:52.946Z,17.35
2018-09-25T12:22:52.728Z,17.28
2018-09-25T12:23:52.859Z,17.20
2018-09-25T12:24:52.603Z,17.21
2018-09-25T12:25:52.509Z,17.03
2018-09-25T12:26:52.433Z,16.92
2018-09-25T12:27:52.576Z,16.85
2018-09-25T12:28:52.293Z,16.80
2018-09-25T12:29:52.286Z,16.70
2018-09-25T12:30:52.136Z,16.55
2018-09-25T12:31:52.093Z,16.66
2018-09-25T12:32:51.996Z,16.65
2018-09-25T12:33:52.048Z,16.66
2018-09-25T12:34:51.847Z,16.89
2018-09-25T12:35:51.815Z,16.88
2018-09-25T12:36:51.691Z,16.75
2018-09-25T12:37:51.720Z,16.84
2018-09-25T12:38:51.536Z,16.89
2018-09-25T12:39:51.468Z,16.93
2018-09-25T12:40:51.489Z,16.88
2018-09-25T12:41:51.322Z,16.89
2018-09-25T12:42:51.358Z,16.88
2018-09-25T12:43:51.172Z,16.95
2018-09-25T12:44:51.226Z,17.05
2018-09-25T12:45:51.020Z,17.02
2018-09-25T12:46:51.073Z,16.98
2018-09-25T12:47:50.874Z,17.14
2018-09-25T12:48:50.878Z,17.21
2018-09-25T12:49:50.729Z,17.35
2018-09-25T12:50:50.686Z,17.46
2018-09-25T12:51:50.577Z,17.51
2018-09-25T12:52:50.504Z,17.47
2018-09-25T12:53:50.505Z,17.63
2018-09-25T12:54:50.370Z,17.67
2018-09-25T12:55:50.313Z,17.60
2018-09-25T12:56:50.203Z,17.66
2018-09-25T12:57:50.235Z,17.64
2018-09-25T12:58:50.058Z,17.64
2018-09-25T12:59:50.033Z,17.44
2018-09-25T13:00:49.913Z,17.47
2018-09-25T13:01:49.944Z,17.21
2018-09-25T13:02:49.762Z,17.21
2018-09-25T13:03:49.804Z,17.14
2018-09-25T13:04:49.620Z,16.82
2018-09-25T13:05:49.665Z,16.67
2018-09-25T13:06:49.464Z,16.62